Time;durP1;ratioP1;P1;durP2;ratioP2;P2;SDS_P1;SDS_P2;PMS_P1;PMS_P2;Temp;Humidity;BMP_temperature;BMP_pressure;BME280_temperature;BME280_humidity;BME280_pressure;Samples;Min_cycle;Max_cycle;Signal;HPM_P1;HPM_P2
2023/01/13 08:57:24;;;;;;;1.87;1.30;;;8.40;99.90;;;;;;5117729;27;20370;-80
2023/01/13 09:16:06;;;;;;;3.63;1.13;;;8.40;99.90;;;;;;5157558;27;20268;-78
2023/01/13 09:22:19;;;;;;;1.20;1.10;;;8.50;99.90;;;;;;5136658;27;20274;-79
2023/01/13 09:24:45;;;;;;;1.27;1.13;;;8.70;99.90;;;;;;5113919;28;20265;-78
2023/01/13 09:27:13;;;;;;;1.13;1.03;;;9.10;99.90;;;;;;5115876;28;20330;-79
2023/01/13 09:29:39;;;;;;;1.10;1.00;;;9.40;99.90;;;;;;5137026;28;20213;-80
2023/01/13 09:32:05;;;;;;;1.47;1.37;;;10.10;99.90;;;;;;5139966;27;20632;-80
2023/01/13 09:37:15;;;;;;;1.10;0.80;;;10.20;99.90;;;;;;5135267;28;20228;-79
2023/01/13 09:39:41;;;;;;;1.37;0.93;;;9.70;99.90;;;;;;5135756;27;20199;-78
2023/01/13 09:45:04;;;;;;;1.33;0.90;;;9.60;99.90;;;;;;5132413;28;20208;-78
2023/01/13 09:47:50;;;;;;;1.37;0.90;;;9.50;99.90;;;;;;5131974;28;20179;-78
2023/01/13 09:50:33;;;;;;;1.23;0.60;;;9.40;99.90;;;;;;5132624;28;20174;-77
2023/01/13 09:52:59;;;;;;;0.80;0.80;;;9.50;99.90;;;;;;5133034;28;20192;-78
2023/01/13 09:55:35;;;;;;;1.23;0.90;;;9.80;99.90;;;;;;5134004;28;20171;-78
2023/01/13 09:58:21;;;;;;;1.00;0.80;;;10.30;99.90;;;;;;5131026;28;20195;-79
2023/01/13 10:01:06;;;;;;;1.73;0.70;;;10.30;99.90;;;;;;5131096;28;20210;-79
2023/01/13 10:03:33;;;;;;;1.27;0.90;;;10.20;99.90;;;;;;5134783;27;20163;-79
2023/01/13 10:06:28;;;;;;;1.37;0.70;;;10.50;99.90;;;;;;5132214;27;20182;-78
2023/01/13 10:08:54;;;;;;;0.53;0.53;;;10.40;99.90;;;;;;5131260;27;20683;-78
2023/01/13 10:14:23;;;;;;;1.63;0.60;;;9.80;99.90;;;;;;5134649;28;20675;-78
2023/01/13 10:17:04;;;;;;;1.10;0.70;;;9.80;99.90;;;;;;5131433;28;20254;-78
2023/01/13 10:19:54;;;;;;;1.20;0.70;;;9.70;99.90;;;;;;5132253;27;20243;-79
2023/01/13 10:22:42;;;;;;;2.77;1.50;;;9.80;99.90;;;;;;5139047;27;20182;-79
2023/01/13 10:25:45;;;;;;;2.37;1.83;;;9.80;99.90;;;;;;5144745;28;20636;-79
2023/01/13 10:28:13;;;;;;;1.23;1.10;;;9.70;99.90;;;;;;5130694;28;20214;-77
2023/01/13 10:30:42;;;;;;;2.07;1.20;;;9.50;99.90;;;;;;5132604;27;20641;-77
2023/01/13 10:33:21;;;;;;;1.00;0.80;;;9.30;99.90;;;;;;5122400;28;20250;-78
2023/01/13 10:36:10;;;;;;;1.40;1.00;;;9.30;99.90;;;;;;5119087;28;20201;-78
2023/01/13 10:38:42;;;;;;;1.00;0.73;;;9.30;99.90;;;;;;5117223;28;20624;-78
2023/01/13 10:41:14;;;;;;;0.40;0.40;;;9.30;99.90;;;;;;5117759;28;20270;-78
2023/01/13 10:43:42;;;;;;;1.60;0.80;;;9.20;99.90;;;;;;5118353;28;20168;-80
2023/01/13 10:46:16;;;;;;;1.50;0.80;;;9.10;99.90;;;;;;5119071;27;20225;-78
2023/01/13 10:48:50;;;;;;;3.13;0.90;;;8.90;99.90;;;;;;5118531;28;20190;-78
2023/01/13 10:51:36;;;;;;;1.07;0.73;;;9.00;99.90;;;;;;5118618;28;20644;-79
2023/01/13 10:54:11;;;;;;;1.40;0.50;;;9.20;99.90;;;;;;5120461;28;20179;-79
2023/01/13 10:56:38;;;;;;;0.80;0.60;;;10.00;99.90;;;;;;5128204;28;20235;-78
2023/01/13 10:59:21;;;;;;;8.43;4.40;;;10.00;99.90;;;;;;5132578;28;20217;-78
2023/01/13 11:02:02;;;;;;;1.20;0.90;;;9.70;99.90;;;;;;5122446;28;20199;-78
2023/01/13 11:04:29;;;;;;;2.87;1.67;;;9.40;99.90;;;;;;5116448;28;20179;-77
2023/01/13 11:06:55;;;;;;;1.70;1.10;;;9.30;99.90;;;;;;5116431;28;20500;-78
2023/01/13 11:09:24;;;;;;;2.27;1.20;;;9.20;99.90;;;;;;5117347;28;20224;-78
2023/01/13 11:11:54;;;;;;;2.37;1.03;;;9.20;99.90;;;;;;5116931;28;20183;-77
2023/01/13 11:14:38;;;;;;;0.80;0.60;;;9.20;99.90;;;;;;5117411;28;20524;-78
2023/01/13 11:17:46;;;;;;;3.23;0.80;;;9.00;99.90;;;;;;5117042;28;20175;-78
2023/01/13 11:20:11;;;;;;;1.10;1.00;;;9.00;99.90;;;;;;5114760;28;20187;-77
2023/01/13 11:22:54;;;;;;;2.00;0.73;;;9.00;99.90;;;;;;5117089;28;20172;-79
2023/01/13 11:28:14;;;;;;;0.97;0.70;;;9.20;99.90;;;;;;5133265;27;20295;-79
2023/01/13 11:30:49;;;;;;;1.27;1.17;;;9.20;99.90;;;;;;5132130;28;20174;-77
2023/01/13 11:33:15;;;;;;;2.07;1.70;;;9.30;99.90;;;;;;5133175;27;20192;-78
2023/01/13 11:35:46;;;;;;;2.23;0.93;;;9.30;99.90;;;;;;5132859;27;20171;-78
2023/01/13 11:40:04;;;;;;;1.43;1.00;;;9.00;99.90;;;;;;5133675;27;20284;-77
2023/01/13 11:44:07;;;;;;;5.13;3.30;;;8.70;99.90;;;;;;5112193;27;20280;-77
2023/01/13 11:46:32;;;;;;;2.83;1.50;;;8.70;99.90;;;;;;5113391;28;20542;-77
2023/01/13 11:52:05;;;;;;;4.23;2.47;;;8.70;99.90;;;;;;5135122;27;20281;-79
2023/01/13 11:54:56;;;;;;;2.23;1.43;;;8.70;99.90;;;;;;5131964;28;20175;-77
2023/01/13 11:57:28;;;;;;;2.57;1.40;;;8.70;99.90;;;;;;5109102;28;20247;-78
2023/01/13 12:00:02;;;;;;;4.17;1.70;;;8.80;99.90;;;;;;5133675;28;20273;-78
2023/01/13 12:02:31;;;;;;;1.13;0.90;;;8.80;99.90;;;;;;5132634;28;20292;-79
2023/01/13 12:05:22;;;;;;;1.20;1.00;;;9.00;99.90;;;;;;5131518;28;20183;-78
2023/01/13 12:08:25;;;;;;;3.27;1.27;;;9.10;99.90;;;;;;5132641;28;20230;-79
2023/01/13 12:11:02;;;;;;;2.57;1.70;;;9.10;99.90;;;;;;5132041;28;20593;-77
2023/01/13 12:14:01;;;;;;;3.43;1.90;;;8.80;99.90;;;;;;5130469;28;20174;-77
2023/01/13 12:16:31;;;;;;;1.67;1.10;;;8.70;99.90;;;;;;5132803;28;20209;-79
2023/01/13 12:19:23;;;;;;;1.73;1.07;;;8.60;99.90;;;;;;5130129;28;20201;-78
2023/01/13 12:22:11;;;;;;;2.83;1.13;;;8.80;99.90;;;;;;5133164;27;20175;-77
2023/01/13 12:24:55;;;;;;;1.83;1.20;;;8.70;99.90;;;;;;5133069;28;20175;-80
2023/01/13 12:27:26;;;;;;;0.70;0.60;;;8.40;99.90;;;;;;5133035;28;20175;-78
2023/01/13 12:29:55;;;;;;;0.77;0.73;;;8.30;99.90;;;;;;5134478;27;20230;-79
2023/01/13 12:37:16;;;;;;;1.87;1.17;;;8.10;99.90;;;;;;5133487;27;20280;-79
2023/01/13 12:39:44;;;;;;;1.90;1.10;;;8.20;99.90;;;;;;5131701;28;20558;-78
2023/01/13 12:45:14;;;;;;;2.20;1.40;;;9.00;99.90;;;;;;5136836;28;20638;-80
2023/01/13 12:47:42;;;;;;;5.83;1.67;;;9.40;99.90;;;;;;5136081;27;20181;-80
2023/01/13 12:50:26;;;;;;;1.23;1.07;;;9.60;99.90;;;;;;5135424;28;20576;-79
2023/01/13 12:53:31;;;;;;;1.00;0.80;;;9.40;99.90;;;;;;5135828;27;20198;-80
2023/01/13 12:56:19;;;;;;;1.97;0.80;;;9.50;99.90;;;;;;5135973;27;20208;-79
2023/01/13 12:58:44;;;;;;;2.07;0.80;;;9.50;99.90;;;;;;5136842;27;20198;-80
2023/01/13 13:01:13;;;;;;;1.00;0.80;;;9.50;99.90;;;;;;5135786;27;20171;-80
2023/01/13 13:03:39;;;;;;;1.70;1.33;;;9.50;99.90;;;;;;5134727;28;20194;-79
2023/01/13 13:06:21;;;;;;;2.03;0.87;;;9.30;99.90;;;;;;5137526;27;20236;-80
2023/01/13 13:09:01;;;;;;;3.37;1.80;;;9.30;99.90;;;;;;5135150;28;20206;-82
2023/01/13 13:14:47;;;;;;;3.00;1.10;;;9.20;99.90;;;;;;5139920;27;20255;-81
2023/01/13 13:17:18;;;;;;;3.90;0.70;;;9.00;99.90;;;;;;5116457;28;20194;-79
2023/01/13 13:19:47;;;;;;;1.10;0.73;;;9.00;99.90;;;;;;5136203;28;20197;-80
2023/01/13 13:22:16;;;;;;;1.50;1.07;;;9.00;99.90;;;;;;5136100;27;20178;-80
2023/01/13 13:25:02;;;;;;;2.47;1.03;;;8.90;99.90;;;;;;5136080;27;20173;-82
2023/01/13 13:27:37;;;;;;;1.83;1.00;;;8.70;99.90;;;;;;5135801;28;20713;-80
2023/01/13 13:30:28;;;;;;;3.00;0.80;;;8.60;99.90;;;;;;5136100;27;20636;-81
2023/01/13 13:33:25;;;;;;;4.57;0.90;;;8.60;99.90;;;;;;5133317;28;20177;-79
2023/01/13 13:36:05;;;;;;;1.30;0.70;;;8.50;99.90;;;;;;5136672;27;20202;-81
2023/01/13 13:47:20;;;;;;;2.33;1.50;;;8.50;99.90;;;;;;5133678;28;20240;-80
2023/01/13 13:49:51;;;;;;;1.87;1.30;;;8.60;99.90;;;;;;5123508;28;20236;-79
2023/01/13 13:52:29;;;;;;;4.47;2.47;;;8.50;99.90;;;;;;5121244;28;20551;-81
2023/01/13 13:55:01;;;;;;;7.47;4.50;;;8.20;99.90;;;;;;5121188;28;20225;-80
2023/01/13 13:57:33;;;;;;;7.03;4.20;;;8.00;99.90;;;;;;5120570;28;20639;-79
2023/01/13 13:59:59;;;;;;;2.20;1.70;;;8.00;99.90;;;;;;5120314;28;20176;-80
2023/01/13 14:02:31;;;;;;;12.10;6.27;;;7.90;99.90;;;;;;5122193;28;20264;-80
2023/01/13 14:05:21;;;;;;;16.20;9.43;;;7.80;99.90;;;;;;5121969;28;20184;-80
2023/01/13 14:14:27;;;;;;;16.27;7.73;;;7.80;99.90;;;;;;5076153;28;20599;-79
2023/01/13 14:20:39;;;;;;;3.00;1.00;;;7.80;99.90;;;;;;5135592;27;20275;-82
